Time;durP1;ratioP1;P1;durP2;ratioP2;P2;SDS_P1;SDS_P2;PMS_P1;PMS_P2;Temp;Humidity;BMP_temperature;BMP_pressure;BME280_temperature;BME280_humidity;BME280_pressure;Samples;Min_cycle;Max_cycle;Signal;HPM_P1;HPM_P2
2022/12/20 00:01:18;;;;;;;7.83;4.30;;;9.00;99.90;;;;;;4985956;28;20026;-81
2022/12/20 00:03:44;;;;;;;7.63;4.75;;;9.00;99.90;;;;;;5020504;28;20383;-81
2022/12/20 00:06:11;;;;;;;6.60;4.78;;;8.90;99.90;;;;;;5000753;28;20124;-86
2022/12/20 00:08:38;;;;;;;8.48;4.68;;;8.90;99.90;;;;;;5023616;28;20048;-87
2022/12/20 00:11:04;;;;;;;;;;;8.80;99.90;;;;;;5003492;28;20042;-86
2022/12/20 00:13:31;;;;;;;8.68;4.57;;;8.90;99.90;;;;;;5020852;28;19925;-86
2022/12/20 00:16:11;;;;;;;7.65;4.63;;;8.80;99.90;;;;;;5019469;28;20034;-87
2022/12/20 00:18:39;;;;;;;6.25;4.00;;;8.80;99.90;;;;;;5019790;28;20044;-86
2022/12/20 00:21:07;;;;;;;8.23;3.90;;;8.70;99.90;;;;;;5006734;28;20512;-86
2022/12/20 00:23:35;;;;;;;6.80;3.45;;;8.80;99.90;;;;;;5013508;28;20042;-87
2022/12/20 00:26:04;;;;;;;6.68;3.97;;;8.80;99.90;;;;;;4983651;28;20037;-86
2022/12/20 00:28:32;;;;;;;8.80;4.13;;;8.80;99.90;;;;;;5015567;28;20042;-87
2022/12/20 00:30:57;;;;;;;7.38;4.03;;;8.80;99.90;;;;;;5020863;28;20076;-88
2022/12/20 00:33:23;;;;;;;8.18;4.30;;;8.70;99.90;;;;;;5020649;28;20115;-87
2022/12/20 00:35:50;;;;;;;5.68;3.17;;;8.70;99.90;;;;;;4981650;28;20525;-87
2022/12/20 00:38:16;;;;;;;5.15;3.53;;;8.70;99.90;;;;;;5015018;28;20049;-88
2022/12/20 00:40:45;;;;;;;6.13;3.80;;;8.70;99.90;;;;;;4984714;28;20048;-87
2022/12/20 00:43:10;;;;;;;8.50;4.03;;;8.70;99.90;;;;;;5002745;28;20045;-87
2022/12/20 00:45:36;;;;;;;8.48;4.30;;;8.60;99.90;;;;;;4986082;28;20391;-87
2022/12/20 00:48:02;;;;;;;7.37;3.70;;;8.60;99.90;;;;;;4997392;28;20042;-88
2022/12/20 00:50:27;;;;;;;8.77;3.93;;;8.60;99.90;;;;;;5005148;28;20637;-87
2022/12/20 00:52:53;;;;;;;5.13;3.70;;;8.40;99.90;;;;;;5007010;28;20276;-88
2022/12/20 00:55:18;;;;;;;5.30;3.63;;;8.60;99.90;;;;;;4987364;28;20841;-88
2022/12/20 00:57:44;;;;;;;6.60;3.50;;;8.60;99.90;;;;;;5007224;28;20645;-88
2022/12/20 01:00:10;;;;;;;6.18;3.92;;;8.60;99.90;;;;;;5006335;28;20034;-87
2022/12/20 01:02:36;;;;;;;5.35;3.25;;;8.70;99.90;;;;;;5033230;28;20136;-87
2022/12/20 01:05:02;;;;;;;6.60;3.70;;;8.70;99.90;;;;;;5008516;28;20042;-88
2022/12/20 01:07:27;;;;;;;4.53;3.22;;;8.70;99.90;;;;;;5014468;28;20524;-88
2022/12/20 01:09:53;;;;;;;5.45;3.38;;;8.70;99.90;;;;;;5008323;28;20092;-88
2022/12/20 01:12:19;;;;;;;8.10;3.72;;;8.70;99.90;;;;;;4991306;28;20497;-88
2022/12/20 01:14:45;;;;;;;4.90;3.07;;;8.50;99.90;;;;;;5017856;28;20405;-88
2022/12/20 01:17:10;;;;;;;5.60;3.45;;;9.10;99.90;;;;;;4994832;28;20076;-87
2022/12/20 01:19:36;;;;;;;5.57;3.70;;;8.80;99.90;;;;;;5014827;28;20434;-87
2022/12/20 01:22:02;;;;;;;5.53;3.40;;;8.80;99.90;;;;;;4990021;28;20448;-87
2022/12/20 01:24:27;;;;;;;6.67;3.50;;;8.90;99.90;;;;;;5010749;28;20669;-87
2022/12/20 01:26:53;;;;;;;5.57;3.45;;;8.90;99.90;;;;;;5025382;28;20033;-87
2022/12/20 01:29:19;;;;;;;4.00;2.50;;;8.80;99.90;;;;;;5004666;28;20068;-87
2022/12/20 01:31:44;;;;;;;6.57;3.53;;;8.90;99.90;;;;;;5028808;28;20737;-87
2022/12/20 01:34:11;;;;;;;5.78;3.40;;;8.90;99.90;;;;;;5021691;28;20065;-87
2022/12/20 01:36:37;;;;;;;5.03;3.15;;;8.80;99.90;;;;;;5030876;28;20086;-86
2022/12/20 01:39:07;;;;;;;;;;;8.80;99.90;;;;;;5038257;28;20045;-86
2022/12/20 01:41:34;;;;;;;5.82;3.42;;;8.80;99.90;;;;;;5015463;28;20365;-88
2022/12/20 01:44:03;;;;;;;5.18;2.90;;;8.80;99.90;;;;;;5014993;28;20060;-88
2022/12/20 01:46:31;;;;;;;4.85;3.10;;;9.00;99.90;;;;;;5011557;28;20033;-87
2022/12/20 01:49:06;;;;;;;5.90;3.65;;;8.80;99.90;;;;;;5009578;28;20096;-89
2022/12/20 01:51:35;;;;;;;6.22;3.42;;;8.80;99.90;;;;;;5020975;28;20081;-88
2022/12/20 01:54:06;;;;;;;6.70;3.10;;;8.90;99.90;;;;;;5010865;28;20092;-87
2022/12/20 01:56:32;;;;;;;6.15;3.05;;;8.80;99.90;;;;;;5032928;28;20076;-88
2022/12/20 01:58:59;;;;;;;4.97;3.13;;;8.80;99.90;;;;;;5011073;28;20034;-87
2022/12/20 02:01:25;;;;;;;6.43;3.38;;;8.80;99.90;;;;;;4989095;28;20034;-87
2022/12/20 02:03:53;;;;;;;7.93;3.40;;;8.70;99.90;;;;;;5003065;28;20049;-87
2022/12/20 02:06:22;;;;;;;6.00;3.00;;;8.80;99.90;;;;;;4999968;28;20030;-87
2022/12/20 02:08:51;;;;;;;4.88;2.83;;;8.80;99.90;;;;;;5021720;28;20054;-89
2022/12/20 02:11:46;;;;;;;6.53;3.05;;;8.90;99.90;;;;;;5009863;28;20112;-89
2022/12/20 02:14:24;;;;;;;4.72;2.92;;;8.80;99.90;;;;;;5007094;28;20053;-89
2022/12/20 02:17:17;;;;;;;5.78;2.88;;;8.80;99.90;;;;;;5027286;28;20420;-90
2022/12/20 02:19:53;;;;;;;4.22;2.83;;;8.90;99.90;;;;;;5004459;28;20095;-89
2022/12/20 02:22:31;;;;;;;5.30;3.33;;;8.80;99.90;;;;;;5010537;28;20040;-89
2022/12/20 02:25:03;;;;;;;5.82;3.40;;;8.80;99.90;;;;;;4997837;28;20053;-89
2022/12/20 02:28:14;;;;;;;4.28;2.67;;;8.80;99.90;;;;;;5022220;28;20390;-89
2022/12/20 02:30:44;;;;;;;6.00;3.15;;;8.80;99.90;;;;;;4980160;28;20053;-89
2022/12/20 02:33:12;;;;;;;4.43;2.95;;;8.70;99.90;;;;;;5003352;28;20033;-89
2022/12/20 02:35:40;;;;;;;6.38;3.28;;;8.80;99.90;;;;;;5020510;28;20041;-88
2022/12/20 02:38:32;;;;;;;5.18;3.50;;;8.70;99.90;;;;;;5009701;28;20128;-88
2022/12/20 02:41:03;;;;;;;5.93;3.50;;;8.70;99.90;;;;;;4998877;28;20037;-89
2022/12/20 02:46:16;;;;;;;5.82;3.13;;;8.80;99.90;;;;;;5002873;28;20056;-89
2022/12/20 02:48:43;;;;;;;6.45;3.33;;;8.90;99.90;;;;;;5022505;28;20485;-89
2022/12/20 02:51:10;;;;;;;6.75;3.53;;;8.70;99.90;;;;;;5024930;28;20040;-88
2022/12/20 02:53:36;;;;;;;;;;;8.70;99.90;;;;;;4993003;28;20042;-89
2022/12/20 02:56:24;;;;;;;5.30;3.38;;;8.80;99.90;;;;;;5008651;28;19997;-88
2022/12/20 02:58:52;;;;;;;;;;;8.70;99.90;;;;;;5016864;28;20038;-87
2022/12/20 03:01:29;;;;;;;8.23;2.97;;;8.70;99.90;;;;;;5022088;28;19917;-86
2022/12/20 03:03:57;;;;;;;7.10;3.42;;;8.70;99.90;;;;;;5001048;28;20504;-87
2022/12/20 03:06:26;;;;;;;5.68;3.47;;;8.70;99.90;;;;;;5001850;28;20121;-87
2022/12/20 03:08:52;;;;;;;4.68;3.10;;;8.70;99.90;;;;;;5005013;28;20101;-86
2022/12/20 03:11:19;;;;;;;6.18;3.78;;;8.70;99.90;;;;;;5000123;28;20075;-86
2022/12/20 03:13:44;;;;;;;8.50;3.40;;;8.70;99.90;;;;;;4991289;28;20124;-86
2022/12/20 03:16:10;;;;;;;4.87;3.70;;;8.80;99.90;;;;;;5002918;28;20125;-86
2022/12/20 03:18:36;;;;;;;6.15;3.63;;;8.80;99.90;;;;;;5023199;28;20280;-86
2022/12/20 03:21:02;;;;;;;7.18;2.95;;;8.80;99.90;;;;;;4988198;28;20117;-85
2022/12/20 03:23:28;;;;;;;7.30;3.25;;;8.80;99.90;;;;;;5023569;28;20398;-86
2022/12/20 03:25:55;;;;;;;7.43;3.45;;;8.80;99.90;;;;;;5014941;28;20033;-86
2022/12/20 03:28:20;;;;;;;7.05;4.00;;;8.90;99.90;;;;;;4984735;28;20518;-86
2022/12/20 03:30:46;;;;;;;5.40;3.10;;;8.90;99.90;;;;;;4993377;28;20096;-87
2022/12/20 03:33:12;;;;;;;8.52;3.70;;;8.80;99.90;;;;;;5002979;28;20052;-86
2022/12/20 03:35:38;;;;;;;8.00;3.55;;;8.80;99.90;;;;;;4964657;28;20038;-87
2022/12/20 03:38:04;;;;;;;5.68;3.70;;;8.70;99.90;;;;;;4985839;28;20038;-87
2022/12/20 03:40:30;;;;;;;7.75;4.13;;;8.70;99.90;;;;;;5006945;28;20527;-87
2022/12/20 03:42:55;;;;;;;8.32;3.65;;;8.70;99.90;;;;;;5021241;28;20039;-87
2022/12/20 03:45:21;;;;;;;7.68;2.97;;;8.80;99.90;;;;;;5013122;28;20078;-87
2022/12/20 03:47:47;;;;;;;6.93;3.47;;;8.80;99.90;;;;;;5030610;28;20038;-87
2022/12/20 03:50:12;;;;;;;5.93;3.15;;;8.80;99.90;;;;;;5008362;28;20038;-87
2022/12/20 03:52:39;;;;;;;5.75;3.95;;;8.70;99.90;;;;;;4996826;28;20034;-87
2022/12/20 03:55:05;;;;;;;4.47;2.90;;;8.80;99.90;;;;;;4997160;28;20082;-87
2022/12/20 03:57:31;;;;;;;6.22;3.22;;;8.90;99.90;;;;;;5005050;28;20541;-87
2022/12/20 03:59:56;;;;;;;4.57;2.95;;;8.90;99.90;;;;;;5009749;28;20123;-87
2022/12/20 04:02:22;;;;;;;5.65;2.95;;;8.90;99.90;;;;;;5002767;28;20033;-87
2022/12/20 04:04:48;;;;;;;7.22;3.30;;;8.90;99.90;;;;;;5006471;28;20033;-87
2022/12/20 04:07:14;;;;;;;7.70;3.88;;;8.90;99.90;;;;;;5016250;28;20049;-86
2022/12/20 04:09:40;;;;;;;6.07;3.58;;;8.90;99.90;;;;;;5002194;28;20106;-87
2022/12/20 04:12:06;;;;;;;6.68;3.92;;;8.90;99.90;;;;;;5015346;28;20538;-87
2022/12/20 04:14:32;;;;;;;5.05;3.22;;;8.90;99.90;;;;;;5010483;28;20067;-87
2022/12/20 04:16:58;;;;;;;5.10;3.38;;;8.90;99.90;;;;;;5003852;28;20041;-87
2022/12/20 04:19:24;;;;;;;5.22;3.05;;;8.90;99.90;;;;;;4995363;28;20455;-87
2022/12/20 04:21:49;;;;;;;6.25;3.47;;;8.90;99.90;;;;;;4994948;28;20042;-86
2022/12/20 04:24:15;;;;;;;7.68;4.00;;;8.90;99.90;;;;;;4999350;28;20474;-87
2022/12/20 04:26:41;;;;;;;8.38;3.92;;;9.00;99.90;;;;;;4986527;28;20034;-86
2022/12/20 04:29:07;;;;;;;7.00;3.92;;;8.90;99.90;;;;;;5020589;28;20044;-87
2022/12/20 04:31:32;;;;;;;5.77;3.40;;;8.90;99.90;;;;;;4982909;28;20041;-87
2022/12/20 04:33:58;;;;;;;6.90;3.45;;;8.90;99.90;;;;;;5006222;28;20714;-87
2022/12/20 04:36:24;;;;;;;6.27;3.70;;;9.10;99.90;;;;;;5012194;28;20045;-87
2022/12/20 04:38:50;;;;;;;5.93;3.72;;;8.90;99.90;;;;;;5000064;28;20037;-87
2022/12/20 04:41:22;;;;;;;5.50;3.55;;;9.00;99.90;;;;;;4985139;28;20116;-86
2022/12/20 04:43:54;;;;;;;8.65;3.95;;;9.00;99.90;;;;;;5010216;28;20067;-87
2022/12/20 04:46:21;;;;;;;6.95;3.75;;;9.00;99.90;;;;;;5026070;28;20085;-87
2022/12/20 04:48:47;;;;;;;7.35;3.33;;;9.10;99.90;;;;;;5024253;28;20478;-87
2022/12/20 04:51:13;;;;;;;6.50;4.13;;;9.30;99.90;;;;;;5021245;28;20140;-87
2022/12/20 04:53:47;;;;;;;6.50;3.53;;;9.20;99.90;;;;;;4991765;28;20285;-87
2022/12/20 04:56:19;;;;;;;7.22;3.72;;;9.20;99.90;;;;;;5005921;28;20536;-86
2022/12/20 04:58:46;;;;;;;6.28;3.88;;;9.20;99.90;;;;;;5021176;28;20126;-87
2022/12/20 05:01:12;;;;;;;4.93;3.67;;;9.30;99.90;;;;;;5029036;28;20038;-87
2022/12/20 05:03:38;;;;;;;6.72;3.67;;;9.40;99.90;;;;;;5013263;28;20034;-87
2022/12/20 05:06:04;;;;;;;;;;;9.30;99.90;;;;;;5013569;28;20049;-87
2022/12/20 05:08:30;;;;;;;6.10;4.10;;;9.40;99.90;;;;;;5027064;28;19925;-88
2022/12/20 05:10:56;;;;;;;7.55;3.85;;;9.40;99.90;;;;;;5003322;28;20042;-87
2022/12/20 05:13:21;;;;;;;5.53;2.93;;;9.40;99.90;;;;;;4989052;28;20044;-87
2022/12/20 05:15:54;;;;;;;5.17;3.33;;;9.40;99.90;;;;;;5031493;28;20292;-87
2022/12/20 05:18:21;;;;;;;4.47;3.25;;;9.50;99.90;;;;;;4991559;28;20109;-89
2022/12/20 05:20:47;;;;;;;5.70;3.83;;;9.50;99.90;;;;;;4989273;28;20073;-88
2022/12/20 05:26:16;;;;;;;6.18;3.58;;;9.40;99.90;;;;;;5029958;28;19921;-87
2022/12/20 05:28:42;;;;;;;7.25;4.07;;;9.70;99.90;;;;;;5018055;28;20037;-87
2022/12/20 05:31:08;;;;;;;7.63;4.13;;;9.40;99.90;;;;;;5010303;28;20061;-86
2022/12/20 05:33:33;;;;;;;5.40;3.67;;;9.40;99.90;;;;;;5004585;28;20037;-86
2022/12/20 05:35:59;;;;;;;7.18;3.72;;;9.50;99.90;;;;;;4994316;28;20045;-87
2022/12/20 05:38:25;;;;;;;7.07;3.90;;;9.40;99.90;;;;;;5006640;28;20731;-84
2022/12/20 05:40:51;;;;;;;7.43;3.90;;;9.70;99.90;;;;;;5003686;28;20049;-88
2022/12/20 05:43:18;;;;;;;5.35;3.40;;;9.50;99.90;;;;;;4988881;28;20038;-87
2022/12/20 05:45:48;;;;;;;7.90;4.00;;;9.50;99.90;;;;;;5030596;28;20041;-87
2022/12/20 05:48:15;;;;;;;6.45;3.72;;;9.50;99.90;;;;;;5003568;28;20038;-88
2022/12/20 05:50:42;;;;;;;6.70;3.40;;;9.60;99.90;;;;;;4997972;28;20033;-87
2022/12/20 05:53:12;;;;;;;5.75;2.75;;;9.60;99.90;;;;;;5003481;28;20041;-88
2022/12/20 05:55:49;;;;;;;9.20;3.67;;;9.60;99.90;;;;;;5030246;28;20040;-84
2022/12/20 05:58:15;;;;;;;6.63;3.42;;;9.60;99.90;;;;;;5008652;28;20168;-84
2022/12/20 06:00:42;;;;;;;5.95;3.22;;;9.50;99.90;;;;;;5011889;28;20041;-83
2022/12/20 06:03:10;;;;;;;7.15;3.45;;;9.60;99.90;;;;;;5006846;28;20042;-83
2022/12/20 06:05:37;;;;;;;7.00;3.47;;;9.60;99.90;;;;;;5021266;28;20037;-83
2022/12/20 06:08:05;;;;;;;4.57;2.90;;;9.60;99.90;;;;;;5004725;28;20111;-83
2022/12/20 06:10:33;;;;;;;3.88;2.90;;;9.60;99.90;;;;;;5005819;28;20033;-83
2022/12/20 06:12:59;;;;;;;4.85;3.22;;;9.70;99.90;;;;;;5022283;28;20038;-83
2022/12/20 06:15:25;;;;;;;8.18;3.63;;;9.90;99.90;;;;;;5028523;28;20053;-83
2022/12/20 06:17:51;;;;;;;5.38;2.65;;;9.70;99.90;;;;;;5008346;28;20041;-83
2022/12/20 06:20:17;;;;;;;7.17;2.90;;;9.60;99.90;;;;;;5023881;28;20072;-83
2022/12/20 06:22:42;;;;;;;6.97;2.80;;;9.70;99.90;;;;;;4991940;28;20331;-83
2022/12/20 06:25:08;;;;;;;6.23;3.23;;;9.60;99.90;;;;;;5022252;28;20301;-84
2022/12/20 06:27:35;;;;;;;5.57;2.90;;;9.70;99.90;;;;;;5021511;28;20347;-83
2022/12/20 06:30:03;;;;;;;5.70;3.00;;;9.70;99.90;;;;;;5006935;28;20041;-84
2022/12/20 06:32:29;;;;;;;3.60;2.33;;;9.70;99.90;;;;;;5022986;28;20080;-84
2022/12/20 06:34:54;;;;;;;6.78;3.55;;;9.60;99.90;;;;;;5002044;28;20399;-84
2022/12/20 06:37:20;;;;;;;5.93;3.30;;;9.70;99.90;;;;;;5023109;28;20046;-83
2022/12/20 06:39:46;;;;;;;4.23;3.30;;;9.80;99.90;;;;;;5024380;28;20307;-84
2022/12/20 06:42:11;;;;;;;6.27;3.03;;;9.80;99.90;;;;;;5008183;28;20276;-83
2022/12/20 06:44:37;;;;;;;4.43;2.83;;;9.90;99.90;;;;;;5021887;28;20300;-83
2022/12/20 06:47:03;;;;;;;6.43;3.30;;;9.90;99.90;;;;;;5004505;28;20405;-83
2022/12/20 06:49:29;;;;;;;5.40;2.92;;;9.90;99.90;;;;;;5023020;28;20657;-83
2022/12/20 06:51:55;;;;;;;4.43;2.85;;;9.80;99.90;;;;;;5006669;28;20114;-83
2022/12/20 06:54:20;;;;;;;5.13;2.70;;;9.80;99.90;;;;;;5003291;28;20092;-82
2022/12/20 06:56:46;;;;;;;5.22;2.95;;;9.90;99.90;;;;;;5022377;28;20464;-83
2022/12/20 06:59:12;;;;;;;4.55;3.05;;;9.80;99.90;;;;;;4989377;28;20091;-82
2022/12/20 07:01:38;;;;;;;5.38;3.42;;;9.80;99.90;;;;;;5005511;28;20046;-82
2022/12/20 07:04:03;;;;;;;7.78;3.40;;;9.80;99.90;;;;;;5019666;28;20034;-82
2022/12/20 07:06:29;;;;;;;4.80;3.53;;;9.90;99.90;;;;;;5007801;28;20046;-82
2022/12/20 07:08:55;;;;;;;7.73;4.33;;;9.80;99.90;;;;;;5004105;28;20062;-82
2022/12/20 07:11:21;;;;;;;5.75;3.85;;;9.80;99.90;;;;;;5023290;28;20291;-83
2022/12/20 07:13:46;;;;;;;7.32;3.90;;;9.70;99.90;;;;;;5021894;28;20038;-82
2022/12/20 07:16:13;;;;;;;6.57;4.03;;;9.70;99.90;;;;;;5021125;28;20068;-83
2022/12/20 07:18:38;;;;;;;;;;;9.50;99.90;;;;;;5007348;28;20068;-82
2022/12/20 07:21:05;;;;;;;7.07;4.80;;;9.70;99.90;;;;;;5022252;28;20352;-83
2022/12/20 07:23:32;;;;;;;7.95;4.57;;;9.70;99.90;;;;;;5023474;28;20171;-83
2022/12/20 07:25:59;;;;;;;7.07;4.68;;;9.60;99.90;;;;;;5022226;28;20036;-83
2022/12/20 07:28:26;;;;;;;9.38;5.32;;;9.70;99.90;;;;;;5021674;28;20080;-83
2022/12/20 07:30:52;;;;;;;8.23;4.85;;;9.70;99.90;;;;;;5023764;28;20433;-82
2022/12/20 07:33:18;;;;;;;7.90;5.03;;;9.70;99.90;;;;;;5021663;28;20040;-83
2022/12/20 07:35:45;;;;;;;5.85;4.25;;;9.70;99.90;;;;;;5020678;28;20109;-83
2022/12/20 07:38:14;;;;;;;9.52;4.40;;;9.70;99.90;;;;;;5004706;28;20096;-83
2022/12/20 07:40:41;;;;;;;8.93;5.68;;;9.70;99.90;;;;;;5018855;28;20051;-83
2022/12/20 07:43:07;;;;;;;8.43;5.22;;;9.70;99.90;;;;;;5023926;28;20537;-83
2022/12/20 07:45:33;;;;;;;7.07;5.05;;;9.70;99.90;;;;;;5021047;28;20395;-84
2022/12/20 07:47:59;;;;;;;8.43;5.13;;;9.70;99.90;;;;;;5004545;28;20041;-83
2022/12/20 07:50:27;;;;;;;6.68;5.28;;;9.70;99.90;;;;;;5020996;28;20040;-83
2022/12/20 07:52:53;;;;;;;8.75;4.75;;;9.70;99.90;;;;;;5018597;28;20037;-83
2022/12/20 07:55:20;;;;;;;6.40;4.53;;;9.70;99.90;;;;;;5001390;28;20122;-83
2022/12/20 07:57:51;;;;;;;8.43;5.55;;;9.70;99.90;;;;;;5002915;28;20125;-83
2022/12/20 08:00:17;;;;;;;7.18;4.72;;;9.70;99.90;;;;;;5002163;28;20120;-83
2022/12/20 08:03:06;;;;;;;9.88;5.78;;;9.80;99.90;;;;;;5020646;28;21082;-83
2022/12/20 08:05:36;;;;;;;7.13;4.85;;;9.80;99.90;;;;;;5017623;28;20517;-83
2022/12/20 08:08:03;;;;;;;8.20;5.72;;;9.90;99.90;;;;;;5004030;28;20081;-83
2022/12/20 08:10:30;;;;;;;7.68;5.63;;;9.80;99.90;;;;;;5004333;28;20045;-83
2022/12/20 08:12:56;;;;;;;8.02;5.22;;;9.80;99.90;;;;;;5001921;28;20034;-84
2022/12/20 08:15:22;;;;;;;10.05;4.50;;;9.80;99.90;;;;;;5004359;28;20034;-83
2022/12/20 08:17:49;;;;;;;6.22;4.57;;;9.90;99.90;;;;;;4988775;28;20124;-83
2022/12/20 08:20:15;;;;;;;7.68;5.22;;;9.90;99.90;;;;;;4985815;28;20037;-83
2022/12/20 08:22:40;;;;;;;6.57;4.35;;;9.90;99.90;;;;;;5001933;28;20044;-83
2022/12/20 08:25:07;;;;;;;7.97;3.93;;;9.90;99.90;;;;;;5006794;28;20037;-79
2022/12/20 08:27:32;;;;;;;8.57;3.97;;;10.00;99.90;;;;;;4999017;28;20042;-79
2022/12/20 08:29:58;;;;;;;8.38;4.47;;;10.00;99.90;;;;;;5001513;28;20037;-79
2022/12/20 08:32:24;;;;;;;9.52;4.82;;;10.00;99.90;;;;;;5015390;28;20059;-79
2022/12/20 08:34:51;;;;;;;5.55;3.95;;;10.10;99.90;;;;;;5015091;28;20041;-79
2022/12/20 08:37:18;;;;;;;6.95;4.28;;;10.00;99.90;;;;;;4999031;28;20067;-79
2022/12/20 08:39:43;;;;;;;;;;;10.00;99.90;;;;;;5004349;28;20072;-78
2022/12/20 08:42:10;;;;;;;7.13;4.50;;;9.90;99.90;;;;;;5001916;28;19956;-79
2022/12/20 08:44:35;;;;;;;4.40;2.90;;;9.90;99.90;;;;;;4985726;28;20057;-78
2022/12/20 08:47:01;;;;;;;5.35;3.08;;;9.80;99.90;;;;;;5020390;28;20042;-78
2022/12/20 08:49:27;;;;;;;5.60;3.67;;;9.90;99.90;;;;;;5006425;28;20118;-79
2022/12/20 08:51:52;;;;;;;4.43;3.00;;;10.00;99.90;;;;;;5015462;28;20033;-79
2022/12/20 08:54:18;;;;;;;4.70;3.63;;;9.90;99.90;;;;;;5017114;28;20100;-79
2022/12/20 08:56:44;;;;;;;6.15;3.50;;;9.90;99.90;;;;;;5003517;28;20037;-79
2022/12/20 08:59:09;;;;;;;5.63;4.22;;;10.00;99.90;;;;;;5004182;28;20045;-79
2022/12/20 09:01:35;;;;;;;5.30;3.50;;;10.00;99.90;;;;;;5017434;28;20057;-78
2022/12/20 09:04:01;;;;;;;5.63;3.00;;;9.90;99.90;;;;;;5022188;28;20887;-78
2022/12/20 09:06:26;;;;;;;4.27;2.60;;;10.00;99.90;;;;;;5003792;28;20331;-78
2022/12/20 09:08:54;;;;;;;4.87;3.33;;;10.20;99.90;;;;;;5000324;28;20289;-78
2022/12/20 09:11:23;;;;;;;5.38;3.25;;;10.00;99.90;;;;;;4987601;28;20277;-78
2022/12/20 09:13:52;;;;;;;5.85;2.72;;;10.10;99.90;;;;;;5017175;28;20037;-78
2022/12/20 09:16:21;;;;;;;6.00;3.03;;;10.10;99.90;;;;;;4999272;28;20041;-78
2022/12/20 09:18:55;;;;;;;3.85;2.83;;;10.10;99.90;;;;;;5003539;28;20061;-77
2022/12/20 09:21:22;;;;;;;7.00;3.33;;;10.10;99.90;;;;;;5016685;28;20378;-77
2022/12/20 09:23:52;;;;;;;4.18;2.42;;;10.10;99.90;;;;;;5023035;28;20045;-77
2022/12/20 09:26:19;;;;;;;5.03;2.80;;;10.10;99.90;;;;;;5007600;28;20053;-78
2022/12/20 09:28:46;;;;;;;7.97;2.75;;;10.20;99.90;;;;;;5006583;28;20048;-80
2022/12/20 09:31:14;;;;;;;5.18;2.80;;;10.20;99.90;;;;;;5007752;28;20462;-78
2022/12/20 09:33:41;;;;;;;6.32;2.70;;;10.30;99.90;;;;;;5009665;28;20128;-79
2022/12/20 09:36:09;;;;;;;;;;;10.30;99.90;;;;;;5024937;28;20512;-79
2022/12/20 09:38:35;;;;;;;5.88;2.50;;;10.40;99.90;;;;;;5018293;28;19939;-79
2022/12/20 09:41:04;;;;;;;4.05;2.75;;;10.40;99.90;;;;;;5008981;28;20117;-79
2022/12/20 09:43:30;;;;;;;3.67;2.50;;;10.40;99.90;;;;;;5022469;28;20053;-78
2022/12/20 09:46:00;;;;;;;3.75;2.13;;;10.40;99.90;;;;;;4989719;28;20044;-78
2022/12/20 09:48:36;;;;;;;4.18;2.05;;;10.50;99.90;;;;;;5004387;28;20421;-79
2022/12/20 09:51:22;;;;;;;4.03;2.30;;;10.50;99.90;;;;;;5019873;28;20040;-79
2022/12/20 09:53:54;;;;;;;3.70;2.40;;;10.60;99.90;;;;;;5005300;28;20069;-79
2022/12/20 09:56:43;;;;;;;3.72;2.67;;;10.60;99.90;;;;;;5019687;28;20042;-79
2022/12/20 09:59:19;;;;;;;3.33;2.30;;;10.50;99.90;;;;;;5005086;28;20087;-79
2022/12/20 10:01:47;;;;;;;4.40;2.25;;;10.60;99.90;;;;;;5005976;28;20041;-79
2022/12/20 10:04:23;;;;;;;5.65;2.20;;;10.70;99.90;;;;;;5008375;28;20049;-79
2022/12/20 10:07:16;;;;;;;4.78;2.38;;;10.70;99.90;;;;;;5022068;28;20037;-79
2022/12/20 10:10:03;;;;;;;3.70;2.25;;;10.80;99.90;;;;;;5023219;28;20053;-79
2022/12/20 10:12:44;;;;;;;;;;;10.60;99.90;;;;;;5025573;28;20041;-79
2022/12/20 10:15:20;;;;;;;3.67;2.83;;;10.70;99.90;;;;;;5015143;28;20392;-79
2022/12/20 10:18:05;;;;;;;4.65;2.53;;;10.80;99.90;;;;;;5024378;28;20077;-79
2022/12/20 10:21:09;;;;;;;3.72;2.50;;;10.70;99.90;;;;;;5004512;28;20037;-79
2022/12/20 10:23:44;;;;;;;5.40;2.25;;;10.60;99.90;;;;;;5005120;28;20042;-78
2022/12/20 10:26:12;;;;;;;4.28;2.28;;;10.60;99.90;;;;;;5019701;28;20184;-78
2022/12/20 10:28:39;;;;;;;3.40;2.13;;;10.70;99.90;;;;;;5022470;28;20041;-78
2022/12/20 10:31:15;;;;;;;5.40;2.00;;;10.70;99.90;;;;;;5023127;28;20038;-79
2022/12/20 10:33:41;;;;;;;3.90;2.15;;;10.70;99.90;;;;;;5005566;28;20506;-79
2022/12/20 10:36:27;;;;;;;4.05;2.30;;;10.70;99.90;;;;;;5021761;28;20041;-78
2022/12/20 10:38:56;;;;;;;4.65;2.70;;;10.80;99.90;;;;;;5014244;28;20056;-79
2022/12/20 10:41:50;;;;;;;3.90;2.63;;;10.70;99.90;;;;;;5023208;28;20112;-78
2022/12/20 10:44:25;;;;;;;3.63;2.53;;;10.60;99.90;;;;;;5022481;28;20038;-78
2022/12/20 10:46:59;;;;;;;3.85;2.13;;;10.70;99.90;;;;;;5004980;28;20044;-78
2022/12/20 10:49:28;;;;;;;3.97;2.20;;;10.90;99.90;;;;;;5021717;28;20045;-79
2022/12/20 10:51:56;;;;;;;3.90;2.45;;;10.80;99.90;;;;;;5021847;28;20034;-79
2022/12/20 10:54:33;;;;;;;2.60;2.08;;;10.80;99.90;;;;;;5023895;28;20111;-79
2022/12/20 10:57:13;;;;;;;4.32;2.33;;;10.90;99.90;;;;;;5002698;28;20042;-79
2022/12/20 10:59:43;;;;;;;5.07;2.53;;;10.90;99.90;;;;;;5019497;28;20090;-79
2022/12/20 11:02:34;;;;;;;3.95;2.40;;;10.90;99.90;;;;;;5020976;28;20796;-79
2022/12/20 11:05:11;;;;;;;5.55;2.33;;;10.90;99.90;;;;;;5019446;28;20073;-78
2022/12/20 11:07:53;;;;;;;4.10;2.50;;;10.90;99.90;;;;;;5020872;28;20041;-79
2022/12/20 11:10:22;;;;;;;3.47;2.25;;;10.90;99.90;;;;;;5000971;28;20093;-79
2022/12/20 11:13:02;;;;;;;6.15;2.60;;;10.90;99.90;;;;;;5019109;28;20036;-78
2022/12/20 11:15:33;;;;;;;4.18;2.40;;;10.90;99.90;;;;;;5017499;28;20038;-78
2022/12/20 11:18:05;;;;;;;6.22;2.75;;;10.90;99.90;;;;;;5018770;28;20042;-78
2022/12/20 11:20:31;;;;;;;7.35;2.00;;;10.80;99.90;;;;;;5017203;28;20045;-78
2022/12/20 11:23:25;;;;;;;4.60;2.35;;;10.80;99.90;;;;;;5004843;28;20048;-78
2022/12/20 11:26:00;;;;;;;4.13;2.28;;;10.80;99.90;;;;;;5005787;28;20045;-78
2022/12/20 11:28:49;;;;;;;8.82;2.75;;;10.70;99.90;;;;;;5019164;28;20514;-78
2022/12/20 11:31:29;;;;;;;6.60;2.47;;;10.70;99.90;;;;;;5006210;28;20445;-79
2022/12/20 11:34:08;;;;;;;4.82;2.50;;;10.70;99.90;;;;;;5003624;28;20037;-78
2022/12/20 11:36:59;;;;;;;5.80;2.40;;;10.80;99.90;;;;;;5015449;28;20049;-78
2022/12/20 11:39:32;;;;;;;6.40;3.00;;;10.70;99.90;;;;;;4998478;28;20060;-78
2022/12/20 11:42:26;;;;;;;6.72;2.70;;;10.90;99.90;;;;;;5016775;28;20037;-78
2022/12/20 11:45:23;;;;;;;3.30;2.30;;;10.80;99.90;;;;;;5020438;28;20176;-78
2022/12/20 11:48:12;;;;;;;5.05;2.53;;;10.80;99.90;;;;;;5014556;28;20054;-76
2022/12/20 11:50:56;;;;;;;3.75;2.92;;;10.80;99.90;;;;;;4985788;28;20152;-77
2022/12/20 11:53:46;;;;;;;3.08;2.33;;;10.70;99.90;;;;;;5020666;28;20121;-77
2022/12/20 11:56:20;;;;;;;5.50;2.65;;;10.70;99.90;;;;;;5019272;28;20042;-77
2022/12/20 11:59:04;;;;;;;4.35;2.58;;;10.70;99.90;;;;;;5002343;28;20034;-77
2022/12/20 12:01:47;;;;;;;4.20;2.83;;;10.80;99.90;;;;;;5020802;28;20037;-77
2022/12/20 12:04:25;;;;;;;5.50;3.00;;;10.80;99.90;;;;;;5020623;28;20046;-78
2022/12/20 12:07:07;;;;;;;6.10;2.88;;;10.60;99.90;;;;;;5021905;28;20393;-79
2022/12/20 12:09:38;;;;;;;8.48;3.33;;;10.60;99.90;;;;;;5006585;28;20085;-79
2022/12/20 12:12:30;;;;;;;5.05;2.90;;;10.60;99.90;;;;;;4999771;28;20088;-79
2022/12/20 12:15:14;;;;;;;5.13;2.85;;;10.70;99.90;;;;;;5016135;28;20117;-78
2022/12/20 12:17:56;;;;;;;4.13;3.08;;;10.60;99.90;;;;;;5021286;28;20497;-79
2022/12/20 12:20:39;;;;;;;4.57;3.30;;;10.60;99.90;;;;;;5021629;28;20095;-79
2022/12/20 12:23:29;;;;;;;5.60;2.80;;;10.60;99.90;;;;;;5003648;28;20122;-79
2022/12/20 12:25:59;;;;;;;4.80;3.58;;;10.60;99.90;;;;;;5002392;28;20033;-78
2022/12/20 12:28:25;;;;;;;4.13;3.15;;;10.60;99.90;;;;;;5001708;28;20038;-78
2022/12/20 12:31:00;;;;;;;5.07;3.50;;;10.60;99.90;;;;;;5006224;28;20113;-78
2022/12/20 12:33:34;;;;;;;7.03;3.50;;;10.60;99.90;;;;;;5013430;28;20042;-78
2022/12/20 12:36:15;;;;;;;4.85;2.90;;;10.60;99.90;;;;;;5001408;28;20126;-78
2022/12/20 12:38:59;;;;;;;6.13;3.72;;;10.60;99.90;;;;;;5021846;28;20120;-78
2022/12/20 12:41:34;;;;;;;4.82;3.42;;;10.50;99.90;;;;;;5020229;28;20049;-78
2022/12/20 12:44:32;;;;;;;6.07;3.28;;;10.50;99.90;;;;;;5019722;28;20148;-78
2022/12/20 12:47:03;;;;;;;4.78;3.53;;;10.50;99.90;;;;;;4999202;28;20038;-78
2022/12/20 12:49:31;;;;;;;5.97;3.60;;;10.50;99.90;;;;;;5020681;28;20034;-78
2022/12/20 12:51:59;;;;;;;5.57;3.53;;;10.40;99.90;;;;;;5004149;28;20033;-77
2022/12/20 12:54:29;;;;;;;5.53;3.88;;;10.40;99.90;;;;;;5020881;28;20041;-77
2022/12/20 12:57:16;;;;;;;10.35;4.43;;;10.40;99.90;;;;;;5003955;28;20527;-77
2022/12/20 12:59:45;;;;;;;4.97;3.55;;;10.40;99.90;;;;;;4987185;28;20053;-77
2022/12/20 13:02:14;;;;;;;6.75;4.57;;;10.40;99.90;;;;;;5023794;28;20512;-77
2022/12/20 13:04:59;;;;;;;6.13;4.18;;;10.50;99.90;;;;;;5024089;28;20500;-77
2022/12/20 13:07:34;;;;;;;5.63;3.90;;;10.40;99.90;;;;;;5017555;28;20041;-77
2022/12/20 13:10:08;;;;;;;5.45;3.90;;;10.40;99.90;;;;;;5027197;28;20046;-78
2022/12/20 13:12:37;;;;;;;6.85;4.43;;;10.40;99.90;;;;;;5021921;28;20045;-77
2022/12/20 13:15:21;;;;;;;6.97;4.28;;;10.40;99.90;;;;;;5008337;28;20494;-77
2022/12/20 13:17:54;;;;;;;5.95;4.30;;;10.50;99.90;;;;;;5011690;28;20037;-77